Latest Weather Observations for Ocean Reef

IDW60901

Issued at 7:41 pm WST Saturday 25 March 2017 (issued every 10 minutes, with the page automatically refreshed every 10 minutes)

About weather observations | Map of Perth area stations | Latest observations for Perth area | Other Formats
Station Details ID: 009214 Name: OCEAN REEF Lat: -31.76 Lon: 115.73 Height: 10.0 m
Data from the previous 72 hours. | See also: Recent months at Ocean Reef
Date/Time
WST
Temp
°C
App
Temp
°C
Dew
Point
°C
Rel
Hum
%
Delta-T
°C
Wind Press
QNH
hPa
Press
MSL
hPa
Rain since
9am
mm
Dir  Spd
km/h
Gust
km/h
Spd
kts
Gust
kts
25/07:30pm - - - - - SW 19 22 10 12 - - -
25/07:00pm - - - - - SW 20 26 11 14 - - -
25/06:30pm - - - - - SW 22 28 12 15 - - -
25/06:00pm - - - - - SW 26 30 14 16 - - -
25/05:30pm - - - - - SW 24 28 13 15 - - -
25/05:00pm - - - - - SSW 20 26 11 14 - - -
25/04:30pm - - - - - SSW 17 20 9 11 - - -
25/04:00pm - - - - - SSW 20 24 11 13 - - -
25/03:30pm - - - - - SSW 20 24 11 13 - - -
25/03:00pm - - - - - SSW 20 26 11 14 - - -
25/02:30pm - - - - - SSW 20 26 11 14 - - -
25/02:00pm - - - - - SW 24 28 13 15 - - -
25/01:30pm - - - - - SW 26 30 14 16 - - -
25/01:00pm - - - - - SSW 24 28 13 15 - - -
25/12:30pm - - - - - SW 20 26 11 14 - - -
25/12:00pm - - - - - SW 19 20 10 11 - - -
25/11:30am - - - - - SW 19 20 10 11 - - -
25/11:00am - - - - - SW 15 17 8 9 - - -
25/10:30am - - - - - ENE 11 17 6 9 - - -
25/10:00am - - - - - E 11 19 6 10 - - -
25/09:30am - - - - - E 15 22 8 12 - - -
25/09:00am - - - - - E 15 20 8 11 - - -
25/08:30am - - - - - E 15 26 8 14 - - -
25/08:00am - - - - - E 15 20 8 11 - - -
25/07:30am - - - - - ESE 11 19 6 10 - - -
25/07:00am - - - - - E 17 28 9 15 - - -
25/06:30am - - - - - SSE 7 9 4 5 - - -
25/06:00am - - - - - E 22 32 12 17 - - -
25/05:30am - - - - - E 22 32 12 17 - - -
25/05:00am - - - - - E 19 26 10 14 - - -
25/04:30am - - - - - E 19 26 10 14 - - -
25/04:00am - - - - - E 20 26 11 14 - - -
25/03:30am - - - - - E 17 28 9 15 - - -
25/03:00am - - - - - E 20 30 11 16 - - -
25/02:30am - - - - - E 17 24 9 13 - - -
25/02:00am - - - - - ESE 19 26 10 14 - - -
25/01:30am - - - - - E 15 19 8 10 - - -
25/01:00am - - - - - ESE 13 15 7 8 - - -
25/12:30am - - - - - SSE 11 13 6 7 - - -
25/12:00am - - - - - SE 11 13 6 7 - - -
 
Date/Time
WST
Temp
°C
App
Temp
°C
Dew
Point
°C
Rel
Hum
%
Delta-T
°C
Wind Press
QNH
hPa
Press
MSL
hPa
Rain since
9am
mm
Dir  Spd
km/h
Gust
km/h
Spd
kts
Gust
kts
24/11:30pm - - - - - SE 13 17 7 9 - - -
24/11:00pm - - - - - SE 15 17 8 9 - - -
24/10:30pm - - - - - SE 13 17 7 9 - - -
24/10:00pm - - - - - SE 13 15 7 8 - - -
24/09:30pm - - - - - SE 11 13 6 7 - - -
24/09:00pm - - - - - SSE 13 13 7 7 - - -
24/08:30pm - - - - - SSE 11 13 6 7 - - -
24/08:00pm - - - - - SSE 13 17 7 9 - - -
24/07:30pm - - - - - SSE 26 35 14 19 - - -
24/07:00pm - - - - - S 30 37 16 20 - - -
24/06:30pm - - - - - S 33 39 18 21 - - -
24/06:00pm - - - - - S 32 39 17 21 - - -
24/05:30pm - - - - - S 35 41 19 22 - - -
24/05:00pm - - - - - S 33 39 18 21 - - -
24/04:30pm - - - - - SSW 33 39 18 21 - - -
24/04:00pm - - - - - SSW 30 35 16 19 - - -
24/03:30pm - - - - - SSW 33 39 18 21 - - -
24/03:00pm - - - - - SSW 32 35 17 19 - - -
24/02:30pm - - - - - SSW 30 35 16 19 - - -
24/02:00pm - - - - - SSW 28 32 15 17 - - -
24/01:30pm - - - - - SSW 26 32 14 17 - - -
24/01:00pm - - - - - SSW 24 30 13 16 - - -
24/12:30pm - - - - - SSW 20 26 11 14 - - -
24/12:00pm - - - - - SSW 19 24 10 13 - - -
24/11:30am - - - - - SSW 17 22 9 12 - - -
24/11:00am - - - - - SW 19 24 10 13 - - -
24/10:30am - - - - - SW 15 19 8 10 - - -
24/10:00am - - - - - SSW 13 15 7 8 - - -
24/09:30am - - - - - SSW 13 17 7 9 - - -
24/09:00am - - - - - SSW 17 19 9 10 - - -
24/08:30am - - - - - SSE 13 17 7 9 - - -
24/08:00am - - - - - SE 11 15 6 8 - - -
24/07:30am - - - - - SE 7 11 4 6 - - -
24/07:00am - - - - - ESE 9 11 5 6 - - -
24/06:30am - - - - - ESE 11 13 6 7 - - -
24/06:00am - - - - - ESE 13 15 7 8 - - -
24/05:30am - - - - - ESE 11 13 6 7 - - -
24/05:00am - - - - - SE 11 13 6 7 - - -
24/04:30am - - - - - SSE 11 13 6 7 - - -
24/04:00am - - - - - SSE 11 13 6 7 - - -
24/03:30am - - - - - SE 13 17 7 9 - - -
24/03:00am - - - - - SE 13 17 7 9 - - -
24/02:30am - - - - - SE 13 15 7 8 - - -
24/02:00am - - - - - SE 15 19 8 10 - - -
24/01:30am - - - - - SE 15 17 8 9 - - -
24/01:00am - - - - - SE 13 17 7 9 - - -
24/12:30am - - - - - SSE 13 17 7 9 - - -
24/12:00am - - - - - SE 13 17 7 9 - - -
 
Date/Time
WST
Temp
°C
App
Temp
°C
Dew
Point
°C
Rel
Hum
%
Delta-T
°C
Wind Press
QNH
hPa
Press
MSL
hPa
Rain since
9am
mm
Dir  Spd
km/h
Gust
km/h
Spd
kts
Gust
kts
23/11:30pm - - - - - SE 11 15 6 8 - - -
23/11:00pm - - - - - SE 13 17 7 9 - - -
23/10:30pm - - - - - S 26 35 14 19 - - -
23/10:00pm - - - - - S 32 37 17 20 - - -
23/09:30pm - - - - - S 32 37 17 20 - - -
23/09:00pm - - - - - S 32 37 17 20 - - -
23/08:30pm - - - - - S 35 41 19 22 - - -
23/08:00pm - - - - - S 33 41 18 22 - - -
23/07:30pm - - - - - SSW 33 39 18 21 - - -
23/07:00pm - - - - - SSW 32 37 17 20 - - -
23/06:30pm - - - - - SSW 32 39 17 21 - - -
23/06:00pm - - - - - SSW 33 39 18 21 - - -
23/05:30pm - - - - - SSW 35 41 19 22 - - -
23/05:00pm - - - - - SSW 32 37 17 20 - - -
23/04:30pm - - - - - SSW 32 39 17 21 - - -
23/04:00pm - - - - - SSW 32 37 17 20 - - -
23/03:30pm - - - - - SSW 30 37 16 20 - - -
23/03:00pm - - - - - SSW 28 33 15 18 - - -
23/02:30pm - - - - - SSW 30 35 16 19 - - -
23/02:00pm - - - - - SSW 30 33 16 18 - - -
23/01:30pm - - - - - SSW 26 32 14 17 - - -
23/01:00pm - - - - - SSW 19 22 10 12 - - -
23/12:30pm - - - - - SSW 17 22 9 12 - - -
23/12:00pm - - - - - SSW 19 26 10 14 - - -
23/11:30am - - - - - SSW 20 24 11 13 - - -
23/11:00am - - - - - SSW 19 26 10 14 - - -
23/10:30am - - - - - S 17 20 9 11 - - -
23/10:00am - - - - - S 30 37 16 20 - - -
23/09:30am - - - - - S 24 30 13 16 - - -
23/09:00am - - - - - S 24 28 13 15 - - -
23/08:30am - - - - - S 22 35 12 19 - - -
23/08:00am - - - - - S 13 19 7 10 - - -
23/07:30am - - - - - SSE 13 17 7 9 - - -
23/07:00am - - - - - SE 9 11 5 6 - - -
23/06:30am - - - - - SE 13 17 7 9 - - -
23/06:00am - - - - - SE 15 19 8 10 - - -
23/05:30am - - - - - SSE 20 33 11 18 - - -
23/05:00am - - - - - SSE 17 30 9 16 - - -
23/04:30am - - - - - S 24 35 13 19 - - -
23/04:00am - - - - - S 30 37 16 20 - - -
23/03:30am - - - - - SSW 32 35 17 19 - - -
23/03:00am - - - - - SSW 30 33 16 18 - - -
23/02:30am - - - - - SSW 32 37 17 20 - - -
23/02:00am - - - - - SW 28 33 15 18 - - -
23/01:30am - - - - - SW 30 35 16 19 - - -
23/01:00am - - - - - SW 24 30 13 16 - - -
23/12:30am - - - - - SW 20 28 11 15 - - -
23/12:00am - - - - - WSW 26 30 14 16 - - -
 
Date/Time
WST
Temp
°C
App
Temp
°C
Dew
Point
°C
Rel
Hum
%
Delta-T
°C
Wind Press
QNH
hPa
Press
MSL
hPa
Rain since
9am
mm
Dir  Spd
km/h
Gust
km/h
Spd
kts
Gust
kts
22/11:30pm - - - - - WSW 19 24 10 13 - - -
22/11:00pm - - - - - WSW 26 30 14 16 - - -
22/10:30pm - - - - - W 22 26 12 14 - - -
22/10:00pm - - - - - WNW 24 32 13 17 - - -
22/09:30pm - - - - - WNW 26 30 14 16 - - -
22/09:00pm - - - - - W 28 33 15 18 - - -
22/08:30pm - - - - - W 32 37 17 20 - - -
22/08:00pm - - - - - WNW 28 33 15 18 - - -

Latest Capital City Observations: Canberra | Sydney | Melbourne | Brisbane | Adelaide | Perth | Hobart | Darwin

Other Formats:

Comma delimited format used in spreadsheet applications
http://www.bom.gov.au/fwo/IDW60901/IDW60901.94607.axf

JavaScript Object Notation format (JSON) in row-major order
http://www.bom.gov.au/fwo/IDW60901/IDW60901.94607.json